Time;durP1;ratioP1;P1;durP2;ratioP2;P2;SDS_P1;SDS_P2;PMS_P1;PMS_P2;Temp;Humidity;BMP_temperature;BMP_pressure;BME280_temperature;BME280_humidity;BME280_pressure;Samples;Min_cycle;Max_cycle;Signal;HPM_P1;HPM_P2
2021/12/25 00:01:06;;;;;;;2.92;1.50;;;19.90;56.60;;;;;;3856797;23;20071;-85
2021/12/25 00:02:37;;;;;;;2.20;1.48;;;19.90;56.50;;;;;;3858564;23;20021;-85
2021/12/25 00:04:09;;;;;;;3.10;1.40;;;19.90;56.50;;;;;;3857981;23;20020;-86
2021/12/25 00:05:41;;;;;;;1.80;1.40;;;19.90;56.50;;;;;;3857149;23;20530;-86
2021/12/25 00:07:12;;;;;;;1.83;1.33;;;19.90;56.40;;;;;;3858996;23;20048;-84
2021/12/25 00:08:44;;;;;;;2.47;1.30;;;19.90;56.20;;;;;;3857662;23;20036;-84
2021/12/25 00:10:16;;;;;;;1.80;1.20;;;19.90;56.50;;;;;;3857686;23;20020;-83
2021/12/25 00:11:48;;;;;;;2.10;1.50;;;19.90;56.50;;;;;;3857335;23;20035;-85
2021/12/25 00:13:19;;;;;;;2.22;1.50;;;19.90;56.40;;;;;;3858099;23;20066;-86
2021/12/25 00:14:52;;;;;;;2.35;1.15;;;19.90;56.30;;;;;;3857205;23;20031;-84
2021/12/25 00:16:24;;;;;;;1.70;1.25;;;19.90;56.30;;;;;;3856691;23;20149;-85
2021/12/25 00:17:56;;;;;;;1.90;1.30;;;19.90;56.30;;;;;;3858283;23;20048;-85
2021/12/25 00:19:27;;;;;;;2.00;1.40;;;19.90;56.20;;;;;;3856810;23;20016;-84
2021/12/25 00:20:59;;;;;;;3.40;1.30;;;19.90;56.30;;;;;;3858700;23;20332;-84
2021/12/25 00:22:31;;;;;;;1.88;1.20;;;19.90;56.00;;;;;;3857766;23;20020;-84
2021/12/25 00:24:03;;;;;;;2.45;1.38;;;19.90;56.00;;;;;;3858665;23;20021;-84
2021/12/25 00:25:39;;;;;;;2.08;1.20;;;19.90;56.10;;;;;;3858547;23;20074;-83
2021/12/25 00:27:34;;;;;;;1.67;1.17;;;19.90;56.00;;;;;;3858002;23;20021;-84
2021/12/25 00:29:21;;;;;;;2.22;1.30;;;19.90;56.20;;;;;;3858454;23;20027;-87
2021/12/25 00:31:06;;;;;;;1.77;1.30;;;19.90;55.90;;;;;;3857164;23;20595;-87
2021/12/25 00:32:50;;;;;;;2.22;1.30;;;19.90;56.00;;;;;;3857205;23;20025;-87
2021/12/25 00:34:23;;;;;;;2.33;1.48;;;19.90;56.10;;;;;;3856793;23;20020;-85
2021/12/25 00:35:55;;;;;;;1.88;1.45;;;19.90;56.10;;;;;;3857849;23;20013;-86
2021/12/25 00:37:27;;;;;;;2.20;1.38;;;19.90;56.00;;;;;;3859555;23;20075;-84
2021/12/25 00:38:58;;;;;;;2.50;1.50;;;19.90;55.90;;;;;;3859271;23;20394;-85
2021/12/25 00:40:30;;;;;;;2.15;1.30;;;19.90;56.10;;;;;;3858243;22;20020;-84
2021/12/25 00:42:02;;;;;;;2.00;1.30;;;19.90;55.90;;;;;;3859692;23;20020;-84
2021/12/25 00:43:34;;;;;;;3.05;1.40;;;19.90;55.70;;;;;;3858739;23;20029;-84
2021/12/25 00:45:06;;;;;;;2.13;1.40;;;19.90;55.90;;;;;;3857436;22;20586;-84
2021/12/25 00:46:40;;;;;;;2.20;1.42;;;19.90;55.80;;;;;;3859662;23;20021;-82
2021/12/25 00:48:11;;;;;;;2.20;1.27;;;19.90;55.80;;;;;;3859520;23;20024;-83
2021/12/25 00:49:43;;;;;;;2.00;1.40;;;19.90;55.60;;;;;;3859524;23;20074;-84
2021/12/25 00:51:15;;;;;;;1.60;1.30;;;19.90;55.60;;;;;;3858694;23;20020;-84
2021/12/25 00:52:47;;;;;;;2.72;1.30;;;19.90;55.50;;;;;;3860028;23;20064;-83
2021/12/25 00:54:18;;;;;;;2.47;1.50;;;19.90;55.60;;;;;;3858258;23;20111;-83
2021/12/25 00:55:49;;;;;;;1.98;1.50;;;19.90;55.20;;;;;;3859702;23;20019;-84
2021/12/25 00:57:21;;;;;;;1.95;1.23;;;19.90;55.30;;;;;;3859195;23;20021;-84
2021/12/25 00:58:53;;;;;;;1.80;1.30;;;19.80;55.40;;;;;;3858998;23;20079;-84
2021/12/25 01:00:25;;;;;;;1.83;1.25;;;19.80;55.30;;;;;;3858363;23;20021;-84
2021/12/25 01:01:58;;;;;;;1.67;1.20;;;19.90;55.20;;;;;;3858504;23;20020;-85
2021/12/25 01:03:30;;;;;;;1.88;1.35;;;19.90;55.10;;;;;;3859746;23;20451;-83
2021/12/25 01:05:02;;;;;;;2.35;1.20;;;19.80;55.10;;;;;;3858570;23;20044;-84
2021/12/25 01:06:33;;;;;;;1.52;1.33;;;19.90;55.00;;;;;;3858451;23;20012;-84
2021/12/25 01:08:06;;;;;;;1.95;1.30;;;19.80;55.00;;;;;;3860601;23;20021;-83
2021/12/25 01:09:37;;;;;;;2.60;1.53;;;19.80;54.90;;;;;;3858280;23;20480;-85
2021/12/25 01:11:09;;;;;;;2.00;1.23;;;19.80;55.10;;;;;;3861144;23;20067;-85
2021/12/25 01:12:52;;;;;;;2.05;1.35;;;19.80;55.10;;;;;;3858807;23;20028;-84
2021/12/25 01:14:33;;;;;;;2.05;1.40;;;19.80;54.90;;;;;;3859827;23;20021;-84
2021/12/25 01:16:20;;;;;;;1.73;1.23;;;19.80;54.70;;;;;;3859791;23;20020;-85
2021/12/25 01:18:14;;;;;;;1.70;1.20;;;19.80;55.10;;;;;;3858171;23;20025;-82
2021/12/25 01:20:17;;;;;;;1.75;1.38;;;19.80;55.00;;;;;;3857987;23;20391;-83
2021/12/25 01:22:11;;;;;;;1.83;1.38;;;19.80;55.00;;;;;;3859990;23;20020;-84
2021/12/25 01:25:53;;;;;;;1.75;1.30;;;19.80;55.00;;;;;;3808410;23;20025;-84
2021/12/25 01:31:07;;;;;;;1.92;1.23;;;19.70;54.70;;;;;;3854370;23;20035;-84
2021/12/25 01:33:18;;;;;;;1.67;1.30;;;19.80;54.70;;;;;;3858743;23;20120;-84
2021/12/25 01:35:16;;;;;;;1.40;1.00;;;19.80;54.80;;;;;;3857056;23;20459;-84
2021/12/25 01:37:06;;;;;;;2.13;1.20;;;19.80;54.50;;;;;;3861584;23;20052;-84
2021/12/25 01:38:54;;;;;;;1.67;1.20;;;19.80;54.60;;;;;;3859576;23;20016;-84
2021/12/25 01:40:46;;;;;;;1.58;1.30;;;19.70;54.50;;;;;;3857892;23;20024;-82
2021/12/25 07:42:09;;;;;;;11.68;3.20;;;19.40;52.60;;;;;;3881815;22;20031;-86
2021/12/25 07:43:40;;;;;;;18.50;5.00;;;19.40;52.40;;;;;;3894157;22;20019;-87
2021/12/25 07:45:13;;;;;;;27.25;7.43;;;19.40;51.90;;;;;;3855654;22;20020;-88
2021/12/25 07:46:45;;;;;;;22.98;6.28;;;19.40;51.40;;;;;;3894061;22;20102;-87
2021/12/25 07:48:19;;;;;;;21.05;6.03;;;19.40;51.40;;;;;;3893086;22;20054;-87
2021/12/25 07:49:51;;;;;;;19.58;5.43;;;19.40;51.80;;;;;;3892675;22;20454;-87
2021/12/25 07:51:23;;;;;;;18.25;4.80;;;19.40;51.70;;;;;;3894097;22;20019;-87
2021/12/25 07:52:55;;;;;;;15.95;4.55;;;19.40;51.30;;;;;;3893750;22;20038;-88
2021/12/25 07:54:27;;;;;;;12.40;4.45;;;19.40;51.30;;;;;;3892922;22;20015;-90
2021/12/25 07:55:59;;;;;;;15.43;4.50;;;19.40;51.40;;;;;;3892996;22;20404;-88
2021/12/25 07:57:32;;;;;;;14.85;4.40;;;19.40;51.80;;;;;;3893985;22;20254;-88
2021/12/25 07:59:04;;;;;;;14.07;4.35;;;19.40;51.20;;;;;;3893053;22;20027;-85
2021/12/25 08:00:36;;;;;;;16.00;4.35;;;19.40;51.00;;;;;;3894771;22;20369;-86
2021/12/25 08:02:08;;;;;;;15.95;4.10;;;19.40;50.80;;;;;;3897651;22;20053;-85
2021/12/25 08:03:40;;;;;;;15.05;4.22;;;19.40;50.80;;;;;;3896750;22;20030;-85
2021/12/25 08:05:12;;;;;;;11.95;4.50;;;19.40;50.80;;;;;;3897526;22;20035;-85
2021/12/25 08:06:43;;;;;;;11.05;3.80;;;19.40;50.50;;;;;;3896669;22;20011;-85
2021/12/25 08:08:15;;;;;;;16.38;3.92;;;19.40;50.70;;;;;;3897797;22;20016;-85
2021/12/25 08:09:47;;;;;;;14.25;4.50;;;19.40;50.70;;;;;;3897535;22;20049;-85
2021/12/25 08:11:19;;;;;;;12.70;3.95;;;19.40;50.50;;;;;;3897808;22;20020;-84
2021/12/25 08:12:54;;;;;;;10.48;4.18;;;19.50;50.40;;;;;;3898187;22;20026;-85
2021/12/25 08:14:26;;;;;;;11.48;4.15;;;19.50;50.50;;;;;;3896885;22;20024;-85
2021/12/25 08:15:57;;;;;;;11.55;3.92;;;19.40;50.50;;;;;;3896386;22;20039;-85
2021/12/25 08:17:29;;;;;;;9.27;3.75;;;19.50;51.10;;;;;;3897431;22;20023;-84
2021/12/25 08:19:01;;;;;;;10.88;4.10;;;19.40;50.50;;;;;;3896605;22;20016;-85
2021/12/25 08:20:34;;;;;;;11.10;4.13;;;19.40;50.30;;;;;;3895925;22;20047;-85
2021/12/25 08:22:06;;;;;;;10.90;3.92;;;19.40;50.00;;;;;;3895428;22;20039;-84
2021/12/25 08:23:37;;;;;;;11.65;3.90;;;19.40;50.10;;;;;;3897393;22;20020;-85
2021/12/25 08:25:09;;;;;;;8.77;3.25;;;19.40;50.10;;;;;;3894689;22;20023;-89
2021/12/25 08:26:41;;;;;;;8.45;3.58;;;19.40;49.90;;;;;;3891486;22;20089;-88
2021/12/25 08:28:14;;;;;;;9.85;3.40;;;19.40;50.00;;;;;;3892401;22;20020;-87
2021/12/25 08:29:46;;;;;;;8.57;3.40;;;19.40;50.80;;;;;;3892403;22;20089;-88
2021/12/25 08:31:18;;;;;;;10.05;3.10;;;19.40;50.50;;;;;;3892719;22;20020;-88
2021/12/25 08:32:55;;;;;;;7.22;3.30;;;19.40;50.70;;;;;;3893136;22;20354;-86
2021/12/25 08:34:27;;;;;;;9.02;3.20;;;19.40;50.40;;;;;;3893403;22;20108;-89
2021/12/25 08:35:59;;;;;;;11.02;3.33;;;19.40;50.40;;;;;;3893904;22;20073;-88
2021/12/25 08:37:31;;;;;;;10.30;3.38;;;19.40;50.50;;;;;;3893327;22;20012;-89
2021/12/25 08:39:03;;;;;;;7.43;3.47;;;19.40;50.40;;;;;;3893561;22;20023;-87
2021/12/25 08:40:36;;;;;;;8.27;3.55;;;19.40;50.10;;;;;;3893512;22;20065;-88
2021/12/25 08:42:09;;;;;;;9.97;3.97;;;19.40;50.50;;;;;;3893754;22;20026;-88
2021/12/25 08:43:47;;;;;;;8.15;3.50;;;19.40;50.00;;;;;;3892690;22;20269;-86
2021/12/25 08:45:40;;;;;;;10.23;3.50;;;19.40;49.50;;;;;;3893527;22;20015;-88
2021/12/25 08:47:12;;;;;;;8.07;3.40;;;19.40;50.00;;;;;;3893389;22;20516;-89
2021/12/25 08:48:54;;;;;;;8.60;3.38;;;19.40;50.30;;;;;;3892959;22;20020;-91
2021/12/25 08:50:26;;;;;;;9.38;3.15;;;19.40;50.60;;;;;;3892808;22;20020;-90
2021/12/25 08:51:58;;;;;;;7.00;2.83;;;19.40;50.80;;;;;;3893022;22;20081;-88
2021/12/25 08:53:30;;;;;;;10.93;3.57;;;19.40;51.10;;;;;;3892199;22;20081;-87
2021/12/25 08:55:02;;;;;;;6.32;2.72;;;19.40;51.00;;;;;;3892802;22;20407;-89
2021/12/25 08:56:34;;;;;;;6.28;3.03;;;19.40;51.00;;;;;;3893124;22;20019;-88
2021/12/25 08:58:06;;;;;;;7.88;3.00;;;19.40;51.00;;;;;;3892234;22;20019;-88
2021/12/25 08:59:39;;;;;;;10.40;3.03;;;19.40;51.20;;;;;;3892411;22;20028;-85
2021/12/25 09:01:12;;;;;;;7.85;2.88;;;19.40;51.00;;;;;;3892257;22;20077;-89
2021/12/25 09:02:44;;;;;;;10.30;3.03;;;19.40;51.40;;;;;;3893113;22;20094;-89
2021/12/25 09:04:16;;;;;;;8.85;3.03;;;19.40;50.20;;;;;;3892274;22;20090;-85
2021/12/25 09:05:47;;;;;;;8.25;2.75;;;19.40;50.10;;;;;;3893096;22;20534;-85
2021/12/25 09:07:19;;;;;;;7.43;2.47;;;19.40;50.80;;;;;;3891079;22;20065;-89
2021/12/25 09:08:51;;;;;;;7.40;3.03;;;19.40;50.30;;;;;;3892219;22;20042;-89
2021/12/25 09:10:23;;;;;;;6.38;2.88;;;19.40;50.00;;;;;;3892634;22;20015;-88
2021/12/25 09:11:56;;;;;;;10.00;2.78;;;19.40;49.30;;;;;;3892922;22;20062;-89
2021/12/25 09:13:28;;;;;;;6.07;2.95;;;19.40;49.00;;;;;;3891956;22;20024;-88
2021/12/25 09:15:01;;;;;;;12.48;2.78;;;19.40;49.00;;;;;;3892668;22;20057;-88
2021/12/25 09:16:33;;;;;;;6.78;2.97;;;19.40;49.00;;;;;;3891954;22;20028;-87
2021/12/25 09:18:04;;;;;;;8.45;2.90;;;19.40;48.90;;;;;;3892772;22;20049;-88
2021/12/25 09:19:36;;;;;;;10.65;3.10;;;19.40;48.70;;;;;;3892825;22;20023;-87
2021/12/25 09:21:08;;;;;;;9.43;3.00;;;19.40;48.70;;;;;;3892360;22;20029;-88
2021/12/25 09:22:40;;;;;;;7.55;2.50;;;19.40;48.60;;;;;;3892291;22;20466;-89
2021/12/25 09:24:12;;;;;;;5.82;2.67;;;19.40;48.70;;;;;;3892311;22;20384;-87
2021/12/25 09:25:43;;;;;;;5.38;2.28;;;19.40;48.60;;;;;;3892180;22;20046;-89
2021/12/25 09:27:15;;;;;;;6.80;2.40;;;19.40;49.20;;;;;;3892659;22;20037;-88
2021/12/25 09:28:47;;;;;;;9.00;3.13;;;19.40;48.40;;;;;;3893103;22;20030;-87
2021/12/25 09:30:21;;;;;;;6.20;2.70;;;19.30;48.60;;;;;;3891659;22;20065;-87
2021/12/25 09:31:53;;;;;;;6.30;2.60;;;19.40;48.50;;;;;;3893601;22;20026;-88
2021/12/25 09:33:24;;;;;;;6.75;2.85;;;19.40;48.50;;;;;;3892029;22;20414;-89
2021/12/25 09:35:00;;;;;;;8.18;2.58;;;19.30;48.40;;;;;;3892643;22;20016;-88
2021/12/25 09:36:32;;;;;;;6.35;2.40;;;19.40;48.40;;;;;;3893045;22;20024;-86
2021/12/25 09:38:03;;;;;;;7.00;2.55;;;19.40;48.40;;;;;;3893553;22;20019;-87
2021/12/25 09:39:34;;;;;;;5.22;2.70;;;19.40;48.40;;;;;;3893484;22;20084;-89
2021/12/25 09:41:06;;;;;;;5.38;2.70;;;19.30;48.40;;;;;;3892406;22;20396;-88
2021/12/25 09:42:40;;;;;;;6.07;2.45;;;19.30;48.40;;;;;;3892423;22;20470;-88
2021/12/25 09:44:12;;;;;;;9.82;2.38;;;19.30;48.40;;;;;;3892062;22;20455;-86
2021/12/25 09:45:45;;;;;;;5.20;2.35;;;19.40;48.50;;;;;;3891614;22;20012;-88
2021/12/25 09:47:17;;;;;;;5.75;2.25;;;19.30;48.40;;;;;;3892901;22;20020;-88
2021/12/25 09:48:50;;;;;;;7.68;2.65;;;19.30;48.40;;;;;;3892502;22;20024;-89
2021/12/25 09:50:22;;;;;;;5.65;2.58;;;19.30;48.30;;;;;;3892861;22;20026;-87
2021/12/25 09:51:54;;;;;;;6.28;2.70;;;19.30;48.30;;;;;;3893049;22;20020;-87
2021/12/25 09:53:26;;;;;;;6.90;2.30;;;19.30;48.40;;;;;;3892811;22;20066;-88
2021/12/25 09:54:58;;;;;;;5.72;2.20;;;19.30;48.40;;;;;;3892329;22;20019;-89
2021/12/25 09:56:30;;;;;;;5.35;2.50;;;19.30;48.50;;;;;;3892855;22;20019;-89
2021/12/25 09:58:02;;;;;;;5.20;2.45;;;19.30;48.40;;;;;;3893943;22;20024;-88
2021/12/25 09:59:34;;;;;;;5.50;2.20;;;19.40;48.50;;;;;;3893072;22;20027;-86
2021/12/25 10:01:07;;;;;;;4.78;2.00;;;19.30;48.40;;;;;;3891920;22;20016;-88
2021/12/25 10:02:43;;;;;;;4.05;2.20;;;19.30;48.40;;;;;;3893132;22;20262;-87
2021/12/25 10:04:32;;;;;;;6.30;2.50;;;19.30;48.30;;;;;;3892435;22;20050;-88
2021/12/25 10:06:04;;;;;;;5.97;2.40;;;19.30;48.40;;;;;;3892626;22;20069;-88
2021/12/25 10:07:35;;;;;;;4.13;2.47;;;19.30;48.40;;;;;;3892675;22;20453;-87
2021/12/25 10:09:19;;;;;;;3.78;2.20;;;19.30;48.40;;;;;;3893157;22;20397;-86
2021/12/25 10:10:52;;;;;;;5.55;2.80;;;19.30;48.50;;;;;;3892379;22;20020;-88
2021/12/25 10:12:27;;;;;;;4.63;2.40;;;19.30;49.10;;;;;;3892621;22;20019;-87
2021/12/25 10:13:59;;;;;;;4.15;2.13;;;19.30;48.30;;;;;;3892553;22;20122;-88
2021/12/25 10:15:31;;;;;;;4.25;2.08;;;19.30;48.30;;;;;;3891478;22;20401;-88
2021/12/25 10:17:14;;;;;;;4.72;2.25;;;19.30;48.40;;;;;;3894028;22;20484;-88
2021/12/25 10:18:46;;;;;;;;;;;19.30;48.20;;;;;;3894885;22;20024;-88
2021/12/25 10:20:20;;;;;;;4.50;2.13;;;19.30;48.30;;;;;;3893271;22;19915;-88
2021/12/25 10:22:03;;;;;;;4.38;2.05;;;19.20;48.40;;;;;;3893397;22;20023;-87
2021/12/25 10:23:36;;;;;;;5.72;2.42;;;19.30;48.60;;;;;;3893193;22;20481;-88
2021/12/25 10:25:10;;;;;;;4.88;2.40;;;19.20;48.50;;;;;;3893703;22;20099;-84
2021/12/25 10:26:43;;;;;;;3.63;2.40;;;19.20;48.50;;;;;;3893168;22;20023;-88
2021/12/25 10:28:16;;;;;;;4.95;1.75;;;19.20;48.50;;;;;;3893864;22;20038;-89
2021/12/25 10:29:48;;;;;;;3.63;2.00;;;19.30;48.30;;;;;;3893480;22;20015;-87
2021/12/25 10:31:21;;;;;;;6.00;2.67;;;19.30;48.40;;;;;;3893634;22;20069;-87
2021/12/25 10:32:54;;;;;;;4.15;2.00;;;19.30;48.40;;;;;;3892002;22;20020;-88
2021/12/25 10:34:26;;;;;;;3.97;2.30;;;19.20;48.40;;;;;;3893671;22;20107;-89
2021/12/25 10:35:59;;;;;;;4.72;2.13;;;19.30;48.40;;;;;;3893171;22;20026;-88
2021/12/25 10:37:31;;;;;;;4.53;2.00;;;19.30;48.40;;;;;;3894247;22;20068;-88
2021/12/25 10:39:04;;;;;;;4.38;1.95;;;19.20;48.40;;;;;;3894238;22;20085;-87
2021/12/25 10:40:36;;;;;;;5.80;2.22;;;19.20;48.40;;;;;;3893477;22;20027;-88
2021/12/25 10:42:11;;;;;;;4.05;2.13;;;19.20;48.40;;;;;;3894048;22;20023;-87
2021/12/25 10:43:43;;;;;;;4.05;2.20;;;19.30;48.30;;;;;;3892758;22;20019;-87
2021/12/25 10:45:15;;;;;;;4.60;2.05;;;19.30;48.40;;;;;;3892357;22;20458;-88
2021/12/25 10:46:48;;;;;;;2.90;1.90;;;19.30;48.40;;;;;;3895393;22;20055;-88
2021/12/25 10:48:26;;;;;;;5.93;2.10;;;19.30;48.40;;;;;;3894970;22;20062;-88
2021/12/25 10:50:01;;;;;;;3.53;2.13;;;19.30;48.20;;;;;;3894707;22;20046;-87
2021/12/25 10:51:33;;;;;;;3.63;2.10;;;19.20;48.30;;;;;;3895565;22;20447;-87
2021/12/25 10:53:22;;;;;;;5.10;2.15;;;19.20;48.30;;;;;;3894417;22;20073;-87
2021/12/25 10:54:54;;;;;;;2.63;1.77;;;19.30;48.30;;;;;;3895025;22;20020;-87
2021/12/25 10:56:34;;;;;;;4.50;2.00;;;19.30;48.30;;;;;;3895348;22;20024;-89
2021/12/25 10:58:06;;;;;;;3.67;2.10;;;19.30;48.10;;;;;;3894851;22;20020;-88
2021/12/25 10:59:45;;;;;;;3.13;1.85;;;19.20;48.30;;;;;;3892815;22;20024;-88
2021/12/25 11:01:17;;;;;;;4.18;2.10;;;19.30;48.30;;;;;;3894063;22;20039;-87
2021/12/25 11:02:50;;;;;;;3.33;1.77;;;19.30;48.40;;;;;;3895826;22;20016;-87
2021/12/25 11:04:27;;;;;;;4.68;1.90;;;19.30;48.40;;;;;;3894458;22;20023;-88
2021/12/25 11:06:05;;;;;;;5.25;2.15;;;19.30;48.40;;;;;;3894220;22;20016;-88
2021/12/25 11:07:36;;;;;;;3.95;1.95;;;19.30;48.20;;;;;;3895582;22;20024;-89
2021/12/25 11:09:08;;;;;;;3.65;1.90;;;19.30;48.20;;;;;;3895410;22;20015;-87
2021/12/25 11:10:44;;;;;;;3.40;1.90;;;19.30;48.30;;;;;;3894485;22;20366;-87
2021/12/25 11:12:20;;;;;;;3.20;1.98;;;19.20;48.20;;;;;;3894967;22;20016;-85
2021/12/25 11:13:53;;;;;;;3.58;1.83;;;19.30;48.20;;;;;;3893984;22;20024;-88
2021/12/25 11:15:26;;;;;;;4.85;1.98;;;19.30;48.20;;;;;;3893651;22;20110;-88
2021/12/25 11:16:58;;;;;;;3.15;2.15;;;19.30;48.10;;;;;;3894992;22;20069;-88
2021/12/25 11:18:30;;;;;;;2.97;1.77;;;19.30;48.20;;;;;;3894996;22;20347;-87
2021/12/25 11:20:04;;;;;;;3.53;1.75;;;19.20;48.20;;;;;;3894318;22;20082;-88
2021/12/25 11:21:37;;;;;;;2.88;1.77;;;19.30;48.20;;;;;;3894775;22;20382;-88
2021/12/25 11:23:10;;;;;;;3.78;1.60;;;19.30;48.20;;;;;;3894508;22;20023;-87
2021/12/25 11:24:43;;;;;;;2.97;1.80;;;19.30;48.20;;;;;;3894309;22;20023;-88
2021/12/25 11:26:15;;;;;;;4.68;2.05;;;19.30;48.20;;;;;;3894686;22;20023;-88
2021/12/25 11:27:47;;;;;;;2.72;1.70;;;19.30;48.20;;;;;;3894900;22;20016;-87
2021/12/25 11:29:20;;;;;;;2.67;1.97;;;19.30;48.20;;;;;;3895033;22;20065;-87
2021/12/25 11:30:52;;;;;;;2.45;1.70;;;19.30;48.20;;;;;;3893676;22;20688;-87
2021/12/25 11:32:24;;;;;;;2.95;1.70;;;19.30;48.40;;;;;;3895062;22;20331;-87
2021/12/25 11:33:56;;;;;;;3.88;2.00;;;19.30;48.10;;;;;;3894676;22;20042;-88
2021/12/25 11:35:31;;;;;;;2.75;1.75;;;19.30;48.20;;;;;;3894439;22;20028;-88
2021/12/25 11:37:03;;;;;;;2.65;1.60;;;19.30;48.20;;;;;;3894862;22;20020;-88
2021/12/25 11:38:35;;;;;;;2.30;1.60;;;19.30;48.20;;;;;;3895310;22;20327;-88
2021/12/25 11:40:08;;;;;;;3.88;1.88;;;19.30;48.20;;;;;;3894635;22;20020;-88
2021/12/25 11:41:40;;;;;;;3.20;1.63;;;19.30;48.20;;;;;;3894713;22;20070;-89
2021/12/25 11:43:12;;;;;;;3.03;1.58;;;19.30;48.10;;;;;;3894143;22;20027;-87
2021/12/25 11:44:47;;;;;;;2.55;1.70;;;19.30;48.20;;;;;;3894542;22;20073;-87
2021/12/25 11:46:19;;;;;;;4.32;1.98;;;19.30;48.10;;;;;;3894412;22;20047;-88
2021/12/25 11:47:51;;;;;;;2.90;1.80;;;19.30;48.10;;;;;;3894557;22;20023;-88
2021/12/25 11:49:23;;;;;;;3.20;1.92;;;19.30;48.10;;;;;;3895172;22;20020;-88
2021/12/25 11:50:56;;;;;;;2.95;1.60;;;19.30;48.10;;;;;;3894657;22;20016;-88
2021/12/25 11:52:33;;;;;;;3.90;1.67;;;19.30;48.10;;;;;;3894197;22;20032;-87
2021/12/25 11:54:16;;;;;;;2.25;1.60;;;19.30;48.10;;;;;;3894733;22;20389;-87
2021/12/25 11:57:49;;;;;;;3.42;1.88;;;19.30;48.10;;;;;;3877923;22;20100;-89
2021/12/25 11:59:22;;;;;;;3.15;1.98;;;19.30;48.10;;;;;;3895236;22;20446;-87
2021/12/25 12:00:54;;;;;;;2.55;1.83;;;19.30;48.10;;;;;;3892120;22;20023;-88
2021/12/25 12:02:39;;;;;;;3.33;1.90;;;19.30;48.10;;;;;;3893309;22;20020;-86
2021/12/25 12:04:15;;;;;;;2.95;1.75;;;19.40;48.00;;;;;;3892291;22;20023;-88
2021/12/25 12:05:47;;;;;;;2.88;1.63;;;19.30;48.10;;;;;;3892782;22;20521;-89
2021/12/25 12:07:23;;;;;;;2.47;1.58;;;19.30;48.20;;;;;;3893678;22;20353;-89
2021/12/25 12:09:00;;;;;;;2.63;1.58;;;19.30;48.10;;;;;;3894434;22;20099;-87
2021/12/25 12:10:56;;;;;;;2.38;1.60;;;19.30;48.00;;;;;;3894189;22;20019;-87
2021/12/25 12:12:28;;;;;;;2.55;1.75;;;19.30;48.10;;;;;;3896569;22;20033;-87
2021/12/25 12:14:15;;;;;;;2.80;1.67;;;19.30;48.10;;;;;;3896465;22;20003;-85
2021/12/25 12:15:47;;;;;;;2.05;1.40;;;19.30;48.00;;;;;;3895822;22;20089;-85
2021/12/25 12:17:27;;;;;;;2.60;1.55;;;19.30;48.10;;;;;;3897865;22;20022;-85
2021/12/25 12:18:58;;;;;;;2.85;1.73;;;19.30;48.00;;;;;;3897210;22;20051;-85
2021/12/25 12:20:36;;;;;;;3.38;1.73;;;19.40;48.10;;;;;;3897015;22;20416;-86
2021/12/25 12:24:49;;;;;;;3.03;1.50;;;19.40;47.90;;;;;;3896108;22;20052;-85
2021/12/25 12:28:46;;;;;;;2.60;1.60;;;19.30;48.10;;;;;;3892498;22;20020;-85
2021/12/25 12:30:38;;;;;;;2.10;1.50;;;19.30;48.10;;;;;;3895265;22;20069;-85
2021/12/25 12:32:32;;;;;;;2.40;1.52;;;19.30;48.10;;;;;;3898037;22;20404;-85
2021/12/25 12:34:26;;;;;;;2.25;1.55;;;19.30;48.10;;;;;;3897379;22;20019;-86
2021/12/25 12:35:58;;;;;;;;;;;19.30;48.10;;;;;;3896566;22;20023;-85
2021/12/25 12:37:31;;;;;;;3.42;1.80;;;19.30;48.10;;;;;;3897493;22;19965;-85
2021/12/25 12:39:17;;;;;;;3.00;1.50;;;19.30;48.20;;;;;;3896428;22;20079;-85
2021/12/25 12:41:08;;;;;;;2.53;1.48;;;19.30;48.00;;;;;;3893838;22;20038;-88
2021/12/25 12:42:50;;;;;;;2.75;1.67;;;19.40;48.10;;;;;;3893077;22;20020;-88
2021/12/25 12:44:29;;;;;;;3.25;1.40;;;19.30;48.00;;;;;;3892757;22;20027;-86
2021/12/25 12:46:01;;;;;;;2.20;1.50;;;19.40;48.00;;;;;;3891726;22;20074;-87
2021/12/25 12:47:33;;;;;;;2.50;1.33;;;19.40;48.10;;;;;;3893187;22;20401;-88
2021/12/25 12:49:04;;;;;;;2.17;1.50;;;19.40;48.00;;;;;;3893104;22;20012;-88
2021/12/25 12:50:37;;;;;;;1.88;1.45;;;19.40;47.90;;;;;;3892202;22;20061;-86
2021/12/25 12:52:18;;;;;;;3.20;1.60;;;19.40;47.90;;;;;;3892981;22;20019;-86
2021/12/25 12:53:51;;;;;;;2.88;1.65;;;19.40;47.90;;;;;;3892688;22;20475;-87
2021/12/25 12:55:25;;;;;;;;;;;19.40;47.90;;;;;;3893028;22;20028;-86
2021/12/25 12:57:03;;;;;;;2.17;1.40;;;19.40;47.90;;;;;;3892932;22;19923;-87
2021/12/25 12:58:57;;;;;;;2.25;1.45;;;19.40;48.00;;;;;;3896136;22;20026;-85
2021/12/25 13:00:29;;;;;;;2.25;1.35;;;19.40;48.00;;;;;;3871893;22;20024;-85
2021/12/25 13:02:02;;;;;;;2.88;1.63;;;19.40;48.00;;;;;;3892672;22;20024;-85
2021/12/25 13:03:34;;;;;;;;;;;19.40;47.90;;;;;;3894575;22;20081;-86
2021/12/25 13:05:06;;;;;;;1.90;1.40;;;19.40;48.00;;;;;;3893621;22;19919;-86
2021/12/25 13:06:37;;;;;;;1.77;1.23;;;19.40;48.10;;;;;;3893812;22;20016;-87
2021/12/25 13:08:17;;;;;;;1.48;1.20;;;19.40;48.00;;;;;;3896630;22;20077;-86
2021/12/25 13:09:57;;;;;;;1.67;1.25;;;19.40;47.80;;;;;;3896458;22;20051;-85
2021/12/25 13:11:34;;;;;;;2.72;1.50;;;19.40;47.90;;;;;;3898483;22;20049;-86
2021/12/25 13:13:11;;;;;;;1.88;1.23;;;19.40;47.90;;;;;;3895674;22;20032;-86
2021/12/25 13:14:43;;;;;;;2.50;1.50;;;19.40;47.90;;;;;;3897994;22;20395;-86
2021/12/25 13:16:16;;;;;;;1.60;1.13;;;19.40;47.90;;;;;;3896328;22;20339;-86
2021/12/25 13:17:48;;;;;;;1.90;1.30;;;19.40;47.90;;;;;;3897816;22;20020;-86
2021/12/25 13:19:24;;;;;;;1.77;1.13;;;19.40;47.80;;;;;;3897423;22;20020;-86
2021/12/25 13:20:56;;;;;;;3.05;1.50;;;19.40;47.90;;;;;;3897009;22;20026;-86
2021/12/25 13:22:28;;;;;;;2.20;1.40;;;19.40;47.90;;;;;;3898883;22;20065;-86
2021/12/25 13:24:05;;;;;;;2.15;1.30;;;19.40;47.90;;;;;;3896208;22;20019;-86
2021/12/25 13:25:37;;;;;;;2.00;1.30;;;19.40;47.80;;;;;;3896313;22;20454;-86
2021/12/25 13:27:08;;;;;;;2.50;1.60;;;19.40;47.80;;;;;;3896251;22;20081;-86
2021/12/25 13:28:43;;;;;;;1.38;1.20;;;19.40;47.90;;;;;;3896853;22;20016;-86
2021/12/25 13:30:17;;;;;;;2.05;1.42;;;19.40;47.90;;;;;;3896015;22;20030;-86
2021/12/25 13:31:49;;;;;;;1.63;1.10;;;19.40;47.90;;;;;;3897321;22;20019;-86
2021/12/25 13:33:22;;;;;;;1.55;1.40;;;19.40;47.80;;;;;;3896248;22;20019;-86
2021/12/25 13:34:54;;;;;;;2.25;1.50;;;19.40;47.70;;;;;;3896741;22;20032;-86
2021/12/25 13:36:28;;;;;;;1.92;1.40;;;19.40;47.70;;;;;;3896420;22;20019;-86
2021/12/25 13:37:59;;;;;;;2.92;1.60;;;19.40;47.80;;;;;;3897524;22;20026;-86
2021/12/25 13:39:33;;;;;;;1.95;1.50;;;19.40;47.70;;;;;;3896830;22;20020;-86
2021/12/25 13:41:05;;;;;;;1.35;1.08;;;19.40;48.40;;;;;;3895403;22;20094;-86
2021/12/25 19:42:21;;;;;;;2.28;2.00;;;19.40;45.90;;;;;;3869037;22;20077;-86
2021/12/25 19:43:52;;;;;;;2.55;1.90;;;19.40;45.90;;;;;;3892632;22;20028;-87
2021/12/25 19:45:26;;;;;;;2.42;2.10;;;19.40;45.90;;;;;;3892887;22;20023;-86
2021/12/25 19:46:57;;;;;;;3.00;2.10;;;19.40;45.90;;;;;;3893445;22;20035;-85
2021/12/25 19:48:29;;;;;;;2.53;2.03;;;19.40;45.90;;;;;;3894078;22;20020;-86
2021/12/25 19:50:08;;;;;;;2.60;2.30;;;19.40;45.80;;;;;;3892887;22;20388;-87
2021/12/25 19:51:39;;;;;;;2.85;2.20;;;19.40;45.90;;;;;;3894300;22;20024;-87
2021/12/25 19:53:12;;;;;;;2.50;2.10;;;19.40;45.90;;;;;;3893297;22;20024;-87
2021/12/25 19:54:44;;;;;;;2.63;1.90;;;19.40;45.90;;;;;;3893497;22;20089;-86
2021/12/25 19:56:16;;;;;;;3.08;2.20;;;19.40;45.80;;;;;;3894006;22;20408;-84
2021/12/25 19:57:49;;;;;;;3.75;2.20;;;19.40;45.80;;;;;;3894121;22;20147;-86
2021/12/25 19:59:21;;;;;;;2.50;1.98;;;19.40;45.70;;;;;;3895283;22;20024;-87
2021/12/25 20:01:02;;;;;;;2.80;2.28;;;19.40;45.80;;;;;;3892252;22;20011;-86
2021/12/25 20:02:34;;;;;;;2.40;2.20;;;19.40;45.80;;;;;;3894213;22;20019;-85
2021/12/25 20:04:07;;;;;;;2.47;2.25;;;19.40;45.70;;;;;;3894436;22;20030;-87
2021/12/25 20:05:39;;;;;;;;;;;19.40;45.70;;;;;;3894309;22;20440;-86
2021/12/25 20:07:11;;;;;;;2.40;2.17;;;19.40;45.70;;;;;;3894221;22;19915;-85
2021/12/25 20:08:43;;;;;;;2.95;2.30;;;19.30;45.70;;;;;;3894260;22;20028;-87
2021/12/25 20:10:15;;;;;;;2.65;2.30;;;19.40;45.80;;;;;;3893743;22;20079;-85
2021/12/25 20:11:47;;;;;;;2.70;2.30;;;19.40;45.70;;;;;;3894406;22;20031;-85
2021/12/25 20:13:25;;;;;;;2.47;2.17;;;19.40;45.70;;;;;;3894267;22;20086;-85
2021/12/25 20:14:57;;;;;;;2.72;2.33;;;19.40;45.80;;;;;;3893738;22;20019;-87
2021/12/25 20:16:29;;;;;;;2.80;2.25;;;19.40;45.70;;;;;;3892996;22;20024;-86
2021/12/25 20:18:00;;;;;;;2.88;2.42;;;19.40;45.70;;;;;;3894630;22;20023;-87
2021/12/25 20:19:32;;;;;;;2.67;2.20;;;19.40;45.60;;;;;;3894947;22;20346;-86
2021/12/25 20:21:05;;;;;;;2.70;2.20;;;19.40;45.70;;;;;;3893026;22;20050;-87
2021/12/25 20:22:37;;;;;;;2.80;2.35;;;19.40;45.70;;;;;;3894120;22;20024;-86
2021/12/25 20:24:09;;;;;;;2.92;2.30;;;19.40;45.60;;;;;;3897536;22;20194;-86
2021/12/25 20:25:41;;;;;;;3.85;2.45;;;19.40;45.70;;;;;;3897802;22;20034;-86